Eldridge, Iowa
Current Conditions -  °F | °C
As of 2:52 PM on Saturday 20 Dec 2014 (Local Time) from KDVN Reporting Station
Haze Haze  
Wind Chill: 27°   Ceiling: 1400
Heat Index: 33°   Visibility: 6mi
Dew Point: 26°   Wind: 7mph
Humidity: 75%   Direction: 160°SSE
Pressure: 30.2"   Gusts: NA
Location:  41.66°N, 90.58°W
Report Text: KDVN 202052Z AUTO 16006KT 6SM HZ OVC014 01/M03 A3020 RMK AO2 SLP235 T00061033 55009
Loading
Personal Weather Stations






























Interactive Weather Map New forecast layout! Learn more

10-Day Weather Forecast

Advertisements
Track Severe Weather on mobile